sensor_id;sensor_type;location;lat;lon;timestamp;P1;durP1;ratioP1;P2;durP2;ratioP2
9506;SDS011;4791;47.528;9.372;2023-01-08T00:09:46;7.77;;;6.37;;
9506;SDS011;4791;47.528;9.372;2023-01-08T00:24:49;6.63;;;5.93;;
9506;SDS011;4791;47.528;9.372;2023-01-08T00:39:52;5.50;;;4.57;;
9506;SDS011;4791;47.528;9.372;2023-01-08T00:54:52;5.47;;;4.70;;
9506;SDS011;4791;47.528;9.372;2023-01-08T01:09:52;4.27;;;3.53;;
9506;SDS011;4791;47.528;9.372;2023-01-08T01:24:53;3.90;;;3.42;;
9506;SDS011;4791;47.528;9.372;2023-01-08T01:39:56;3.97;;;3.20;;
9506;SDS011;4791;47.528;9.372;2023-01-08T01:54:56;3.30;;;2.90;;
9506;SDS011;4791;47.528;9.372;2023-01-08T02:10:22;4.20;;;2.67;;
9506;SDS011;4791;47.528;9.372;2023-01-08T02:41:08;2.47;;;1.75;;
9506;SDS011;4791;47.528;9.372;2023-01-08T02:56:13;2.92;;;1.90;;
9506;SDS011;4791;47.528;9.372;2023-01-08T03:11:18;4.95;;;2.38;;
9506;SDS011;4791;47.528;9.372;2023-01-08T03:26:21;3.72;;;2.33;;
9506;SDS011;4791;47.528;9.372;2023-01-08T03:41:26;3.90;;;2.20;;
9506;SDS011;4791;47.528;9.372;2023-01-08T03:56:28;3.88;;;2.63;;
9506;SDS011;4791;47.528;9.372;2023-01-08T04:11:29;4.20;;;2.92;;
9506;SDS011;4791;47.528;9.372;2023-01-08T04:26:29;4.50;;;2.72;;
9506;SDS011;4791;47.528;9.372;2023-01-08T04:41:30;3.17;;;2.70;;
9506;SDS011;4791;47.528;9.372;2023-01-08T04:56:33;4.72;;;2.88;;
9506;SDS011;4791;47.528;9.372;2023-01-08T05:11:33;5.35;;;2.70;;
9506;SDS011;4791;47.528;9.372;2023-01-08T05:26:36;4.53;;;2.97;;
9506;SDS011;4791;47.528;9.372;2023-01-08T05:41:36;4.33;;;2.90;;
9506;SDS011;4791;47.528;9.372;2023-01-08T05:56:41;3.70;;;2.43;;
9506;SDS011;4791;47.528;9.372;2023-01-08T06:11:45;4.20;;;2.97;;
9506;SDS011;4791;47.528;9.372;2023-01-08T06:26:46;3.70;;;2.90;;
9506;SDS011;4791;47.528;9.372;2023-01-08T06:41:48;4.27;;;3.43;;
9506;SDS011;4791;47.528;9.372;2023-01-08T06:56:52;3.70;;;3.30;;
9506;SDS011;4791;47.528;9.372;2023-01-08T07:11:53;3.70;;;3.23;;
9506;SDS011;4791;47.528;9.372;2023-01-08T07:26:55;4.13;;;3.37;;
9506;SDS011;4791;47.528;9.372;2023-01-08T07:41:56;4.60;;;3.77;;
9506;SDS011;4791;47.528;9.372;2023-01-08T07:56:59;5.13;;;4.57;;
9506;SDS011;4791;47.528;9.372;2023-01-08T08:11:59;4.87;;;4.33;;
9506;SDS011;4791;47.528;9.372;2023-01-08T08:27:02;6.20;;;5.53;;
9506;SDS011;4791;47.528;9.372;2023-01-08T08:42:02;7.67;;;6.70;;
9506;SDS011;4791;47.528;9.372;2023-01-08T08:57:03;8.57;;;7.10;;
9506;SDS011;4791;47.528;9.372;2023-01-08T09:12:03;7.63;;;6.82;;
9506;SDS011;4791;47.528;9.372;2023-01-08T09:27:04;7.60;;;6.90;;
9506;SDS011;4791;47.528;9.372;2023-01-08T09:42:06;8.07;;;6.80;;
9506;SDS011;4791;47.528;9.372;2023-01-08T09:57:13;7.10;;;6.40;;
9506;SDS011;4791;47.528;9.372;2023-01-08T10:27:25;7.73;;;6.80;;
9506;SDS011;4791;47.528;9.372;2023-01-08T10:42:28;7.50;;;6.13;;
9506;SDS011;4791;47.528;9.372;2023-01-08T10:57:38;7.60;;;6.20;;
9506;SDS011;4791;47.528;9.372;2023-01-08T11:12:39;7.20;;;6.50;;
9506;SDS011;4791;47.528;9.372;2023-01-08T11:27:41;7.03;;;6.33;;
9506;SDS011;4791;47.528;9.372;2023-01-08T12:28:41;8.27;;;7.47;;
9506;SDS011;4791;47.528;9.372;2023-01-08T12:44:05;8.13;;;7.20;;
9506;SDS011;4791;47.528;9.372;2023-01-08T12:59:22;6.83;;;6.13;;
9506;SDS011;4791;47.528;9.372;2023-01-08T13:14:45;6.53;;;5.87;;
9506;SDS011;4791;47.528;9.372;2023-01-08T13:29:47;6.37;;;5.77;;
9506;SDS011;4791;47.528;9.372;2023-01-08T13:44:56;6.60;;;6.00;;
9506;SDS011;4791;47.528;9.372;2023-01-08T13:59:58;6.50;;;5.53;;
9506;SDS011;4791;47.528;9.372;2023-01-08T14:14:59;6.53;;;5.40;;
9506;SDS011;4791;47.528;9.372;2023-01-08T14:29:59;5.97;;;5.38;;
9506;SDS011;4791;47.528;9.372;2023-01-08T14:45:04;6.32;;;5.13;;
9506;SDS011;4791;47.528;9.372;2023-01-08T15:00:18;6.13;;;5.53;;
9506;SDS011;4791;47.528;9.372;2023-01-08T15:15:22;6.80;;;5.53;;
9506;SDS011;4791;47.528;9.372;2023-01-08T15:30:24;7.18;;;6.22;;
9506;SDS011;4791;47.528;9.372;2023-01-08T15:45:42;7.10;;;6.37;;
9506;SDS011;4791;47.528;9.372;2023-01-08T16:00:44;6.77;;;6.07;;
9506;SDS011;4791;47.528;9.372;2023-01-08T16:15:47;7.47;;;6.67;;
9506;SDS011;4791;47.528;9.372;2023-01-08T16:30:52;6.07;;;5.47;;
9506;SDS011;4791;47.528;9.372;2023-01-08T16:45:53;6.70;;;6.00;;
9506;SDS011;4791;47.528;9.372;2023-01-08T17:00:56;7.70;;;6.70;;
9506;SDS011;4791;47.528;9.372;2023-01-08T17:15:57;8.35;;;7.28;;
9506;SDS011;4791;47.528;9.372;2023-01-08T17:31:02;8.00;;;7.20;;
9506;SDS011;4791;47.528;9.372;2023-01-08T17:46:04;7.90;;;7.10;;
9506;SDS011;4791;47.528;9.372;2023-01-08T18:01:08;8.43;;;7.60;;
9506;SDS011;4791;47.528;9.372;2023-01-08T18:16:14;9.07;;;7.87;;
9506;SDS011;4791;47.528;9.372;2023-01-08T18:31:14;8.85;;;7.90;;
9506;SDS011;4791;47.528;9.372;2023-01-08T18:46:14;8.18;;;7.38;;
9506;SDS011;4791;47.528;9.372;2023-01-08T19:01:15;8.00;;;7.03;;
9506;SDS011;4791;47.528;9.372;2023-01-08T19:16:15;9.93;;;8.60;;
9506;SDS011;4791;47.528;9.372;2023-01-08T19:31:19;9.55;;;8.23;;
9506;SDS011;4791;47.528;9.372;2023-01-08T19:46:20;8.57;;;7.67;;
9506;SDS011;4791;47.528;9.372;2023-01-08T20:01:21;8.43;;;7.53;;
9506;SDS011;4791;47.528;9.372;2023-01-08T20:16:24;7.03;;;6.33;;
9506;SDS011;4791;47.528;9.372;2023-01-08T20:31:25;6.70;;;6.10;;
9506;SDS011;4791;47.528;9.372;2023-01-08T20:46:28;6.53;;;5.73;;
9506;SDS011;4791;47.528;9.372;2023-01-08T21:01:29;6.63;;;5.93;;
9506;SDS011;4791;47.528;9.372;2023-01-08T21:16:37;6.23;;;5.63;;
9506;SDS011;4791;47.528;9.372;2023-01-08T21:31:39;6.67;;;5.97;;
9506;SDS011;4791;47.528;9.372;2023-01-08T21:46:39;6.40;;;5.80;;
9506;SDS011;4791;47.528;9.372;2023-01-08T22:01:40;5.90;;;5.30;;
9506;SDS011;4791;47.528;9.372;2023-01-08T22:16:43;6.18;;;5.57;;
9506;SDS011;4791;47.528;9.372;2023-01-08T22:31:43;6.07;;;5.30;;
9506;SDS011;4791;47.528;9.372;2023-01-08T22:46:44;7.03;;;6.03;;
9506;SDS011;4791;47.528;9.372;2023-01-08T23:01:44;6.70;;;6.10;;
9506;SDS011;4791;47.528;9.372;2023-01-08T23:16:45;7.43;;;6.47;;
9506;SDS011;4791;47.528;9.372;2023-01-08T23:31:45;7.22;;;6.32;;
9506;SDS011;4791;47.528;9.372;2023-01-08T23:46:48;7.35;;;6.28;;
